sensor_id;sensor_type;location;lat;lon;timestamp;P1;durP1;ratioP1;P2;durP2;ratioP2
5117;SDS011;2578;51.622;7.046;2024-01-27T00:01:42;67.07;;;14.70;;
5117;SDS011;2578;51.622;7.046;2024-01-27T00:04:08;69.13;;;16.10;;
5117;SDS011;2578;51.622;7.046;2024-01-27T00:06:34;69.80;;;15.30;;
5117;SDS011;2578;51.622;7.046;2024-01-27T00:09:00;67.70;;;14.70;;
5117;SDS011;2578;51.622;7.046;2024-01-27T00:11:26;67.90;;;14.80;;
5117;SDS011;2578;51.622;7.046;2024-01-27T00:13:52;68.23;;;14.77;;
5117;SDS011;2578;51.622;7.046;2024-01-27T00:16:18;67.77;;;14.50;;
5117;SDS011;2578;51.622;7.046;2024-01-27T00:18:45;70.27;;;15.77;;
5117;SDS011;2578;51.622;7.046;2024-01-27T00:21:11;68.90;;;15.70;;
5117;SDS011;2578;51.622;7.046;2024-01-27T00:23:36;69.80;;;14.80;;
5117;SDS011;2578;51.622;7.046;2024-01-27T00:26:02;67.70;;;15.17;;
5117;SDS011;2578;51.622;7.046;2024-01-27T00:28:28;68.13;;;15.77;;
5117;SDS011;2578;51.622;7.046;2024-01-27T00:30:54;66.87;;;14.13;;
5117;SDS011;2578;51.622;7.046;2024-01-27T00:33:21;67.93;;;14.50;;
5117;SDS011;2578;51.622;7.046;2024-01-27T00:35:47;67.50;;;15.67;;
5117;SDS011;2578;51.622;7.046;2024-01-27T00:38:13;67.90;;;18.03;;
5117;SDS011;2578;51.622;7.046;2024-01-27T00:40:39;67.60;;;16.80;;
5117;SDS011;2578;51.622;7.046;2024-01-27T00:43:05;68.70;;;16.20;;
5117;SDS011;2578;51.622;7.046;2024-01-27T00:45:32;67.67;;;15.90;;
5117;SDS011;2578;51.622;7.046;2024-01-27T00:47:57;77.53;;;16.20;;
5117;SDS011;2578;51.622;7.046;2024-01-27T00:50:23;65.67;;;15.07;;
5117;SDS011;2578;51.622;7.046;2024-01-27T00:52:49;66.10;;;15.33;;
5117;SDS011;2578;51.622;7.046;2024-01-27T00:55:15;71.53;;;15.83;;
5117;SDS011;2578;51.622;7.046;2024-01-27T00:57:42;65.63;;;14.60;;
5117;SDS011;2578;51.622;7.046;2024-01-27T01:00:08;65.47;;;14.40;;
5117;SDS011;2578;51.622;7.046;2024-01-27T01:02:35;66.00;;;14.93;;
5117;SDS011;2578;51.622;7.046;2024-01-27T01:05:02;67.60;;;15.70;;
5117;SDS011;2578;51.622;7.046;2024-01-27T01:07:29;68.10;;;16.90;;
5117;SDS011;2578;51.622;7.046;2024-01-27T01:09:55;70.30;;;15.97;;
5117;SDS011;2578;51.622;7.046;2024-01-27T01:12:21;66.83;;;16.57;;
5117;SDS011;2578;51.622;7.046;2024-01-27T01:14:47;66.77;;;15.77;;
5117;SDS011;2578;51.622;7.046;2024-01-27T01:17:12;69.90;;;18.53;;
5117;SDS011;2578;51.622;7.046;2024-01-27T01:19:39;66.40;;;15.40;;
5117;SDS011;2578;51.622;7.046;2024-01-27T01:22:05;76.80;;;17.00;;
5117;SDS011;2578;51.622;7.046;2024-01-27T01:24:32;66.07;;;14.70;;
5117;SDS011;2578;51.622;7.046;2024-01-27T01:26:58;67.27;;;15.20;;
5117;SDS011;2578;51.622;7.046;2024-01-27T01:29:24;66.17;;;14.63;;
5117;SDS011;2578;51.622;7.046;2024-01-27T01:31:50;66.27;;;14.60;;
5117;SDS011;2578;51.622;7.046;2024-01-27T01:34:16;67.30;;;16.47;;
5117;SDS011;2578;51.622;7.046;2024-01-27T01:36:42;65.90;;;15.00;;
5117;SDS011;2578;51.622;7.046;2024-01-27T01:39:09;65.13;;;14.13;;
5117;SDS011;2578;51.622;7.046;2024-01-27T01:41:36;65.27;;;14.60;;
5117;SDS011;2578;51.622;7.046;2024-01-27T01:44:01;65.60;;;14.03;;
5117;SDS011;2578;51.622;7.046;2024-01-27T01:46:27;66.40;;;14.10;;
5117;SDS011;2578;51.622;7.046;2024-01-27T01:48:53;66.27;;;13.87;;
5117;SDS011;2578;51.622;7.046;2024-01-27T01:51:20;67.27;;;15.10;;
5117;SDS011;2578;51.622;7.046;2024-01-27T01:53:47;67.33;;;14.10;;
5117;SDS011;2578;51.622;7.046;2024-01-27T01:56:14;66.77;;;14.67;;
5117;SDS011;2578;51.622;7.046;2024-01-27T01:58:40;66.40;;;13.50;;
5117;SDS011;2578;51.622;7.046;2024-01-27T02:01:06;65.97;;;13.90;;
5117;SDS011;2578;51.622;7.046;2024-01-27T02:03:32;66.63;;;13.83;;
5117;SDS011;2578;51.622;7.046;2024-01-27T02:05:58;65.20;;;13.20;;
5117;SDS011;2578;51.622;7.046;2024-01-27T02:08:24;65.70;;;13.27;;
5117;SDS011;2578;51.622;7.046;2024-01-27T02:10:50;64.90;;;12.90;;
5117;SDS011;2578;51.622;7.046;2024-01-27T02:13:20;67.20;;;14.13;;
5117;SDS011;2578;51.622;7.046;2024-01-27T02:15:47;65.43;;;12.80;;
5117;SDS011;2578;51.622;7.046;2024-01-27T02:18:14;65.80;;;12.73;;
5117;SDS011;2578;51.622;7.046;2024-01-27T02:20:41;79.83;;;14.80;;
5117;SDS011;2578;51.622;7.046;2024-01-27T02:23:07;68.80;;;13.30;;
5117;SDS011;2578;51.622;7.046;2024-01-27T02:25:33;66.87;;;14.10;;
5117;SDS011;2578;51.622;7.046;2024-01-27T02:27:59;65.90;;;12.70;;
5117;SDS011;2578;51.622;7.046;2024-01-27T02:30:26;65.90;;;12.40;;
5117;SDS011;2578;51.622;7.046;2024-01-27T02:32:52;65.90;;;12.17;;
5117;SDS011;2578;51.622;7.046;2024-01-27T02:35:18;65.57;;;12.70;;
5117;SDS011;2578;51.622;7.046;2024-01-27T02:37:44;65.27;;;11.90;;
5117;SDS011;2578;51.622;7.046;2024-01-27T02:40:10;65.53;;;12.57;;
5117;SDS011;2578;51.622;7.046;2024-01-27T02:42:36;66.63;;;13.00;;
5117;SDS011;2578;51.622;7.046;2024-01-27T02:45:03;66.10;;;13.13;;
5117;SDS011;2578;51.622;7.046;2024-01-27T02:47:29;64.87;;;12.00;;
5117;SDS011;2578;51.622;7.046;2024-01-27T02:49:54;66.13;;;12.93;;
5117;SDS011;2578;51.622;7.046;2024-01-27T02:52:20;65.87;;;12.70;;
5117;SDS011;2578;51.622;7.046;2024-01-27T02:54:46;67.73;;;13.50;;
5117;SDS011;2578;51.622;7.046;2024-01-27T02:57:12;65.77;;;12.40;;
5117;SDS011;2578;51.622;7.046;2024-01-27T02:59:40;65.90;;;12.10;;
5117;SDS011;2578;51.622;7.046;2024-01-27T03:02:06;65.20;;;12.30;;
5117;SDS011;2578;51.622;7.046;2024-01-27T03:04:32;66.20;;;13.10;;
5117;SDS011;2578;51.622;7.046;2024-01-27T03:06:58;65.47;;;11.83;;
5117;SDS011;2578;51.622;7.046;2024-01-27T03:09:24;65.83;;;12.00;;
5117;SDS011;2578;51.622;7.046;2024-01-27T03:11:50;67.20;;;13.60;;
5117;SDS011;2578;51.622;7.046;2024-01-27T03:14:16;67.13;;;13.77;;
5117;SDS011;2578;51.622;7.046;2024-01-27T03:16:42;68.20;;;13.70;;
5117;SDS011;2578;51.622;7.046;2024-01-27T03:19:09;66.97;;;14.10;;
5117;SDS011;2578;51.622;7.046;2024-01-27T03:21:35;66.03;;;12.37;;
5117;SDS011;2578;51.622;7.046;2024-01-27T03:24:01;66.10;;;12.00;;
5117;SDS011;2578;51.622;7.046;2024-01-27T03:26:26;65.90;;;12.50;;
5117;SDS011;2578;51.622;7.046;2024-01-27T03:28:52;68.00;;;12.37;;
5117;SDS011;2578;51.622;7.046;2024-01-27T03:31:18;66.10;;;12.53;;
5117;SDS011;2578;51.622;7.046;2024-01-27T03:33:44;65.77;;;11.83;;
5117;SDS011;2578;51.622;7.046;2024-01-27T03:36:13;65.53;;;11.37;;
5117;SDS011;2578;51.622;7.046;2024-01-27T03:38:43;65.47;;;11.73;;
5117;SDS011;2578;51.622;7.046;2024-01-27T03:41:08;76.77;;;14.90;;
5117;SDS011;2578;51.622;7.046;2024-01-27T03:43:34;65.57;;;13.10;;
5117;SDS011;2578;51.622;7.046;2024-01-27T03:46:01;66.57;;;12.60;;
5117;SDS011;2578;51.622;7.046;2024-01-27T03:48:28;65.87;;;13.20;;
5117;SDS011;2578;51.622;7.046;2024-01-27T03:50:53;66.07;;;12.70;;
5117;SDS011;2578;51.622;7.046;2024-01-27T03:53:19;65.57;;;13.00;;
5117;SDS011;2578;51.622;7.046;2024-01-27T03:55:45;65.93;;;12.40;;
5117;SDS011;2578;51.622;7.046;2024-01-27T03:58:11;66.20;;;12.70;;
5117;SDS011;2578;51.622;7.046;2024-01-27T04:00:37;66.40;;;13.20;;
5117;SDS011;2578;51.622;7.046;2024-01-27T04:03:03;67.73;;;14.23;;
5117;SDS011;2578;51.622;7.046;2024-01-27T04:05:29;65.13;;;13.30;;
5117;SDS011;2578;51.622;7.046;2024-01-27T04:07:55;65.53;;;13.90;;
5117;SDS011;2578;51.622;7.046;2024-01-27T04:10:22;65.27;;;13.90;;
5117;SDS011;2578;51.622;7.046;2024-01-27T04:12:48;67.27;;;14.83;;
5117;SDS011;2578;51.622;7.046;2024-01-27T04:15:14;65.57;;;13.67;;
5117;SDS011;2578;51.622;7.046;2024-01-27T04:17:40;66.40;;;14.60;;
5117;SDS011;2578;51.622;7.046;2024-01-27T04:20:07;66.80;;;14.50;;
5117;SDS011;2578;51.622;7.046;2024-01-27T04:22:33;65.73;;;13.57;;
5117;SDS011;2578;51.622;7.046;2024-01-27T04:24:59;66.47;;;14.53;;
5117;SDS011;2578;51.622;7.046;2024-01-27T04:27:29;66.07;;;14.17;;
5117;SDS011;2578;51.622;7.046;2024-01-27T04:29:55;70.53;;;16.47;;
5117;SDS011;2578;51.622;7.046;2024-01-27T04:32:21;65.47;;;14.10;;
5117;SDS011;2578;51.622;7.046;2024-01-27T04:34:48;65.53;;;13.40;;
5117;SDS011;2578;51.622;7.046;2024-01-27T04:37:14;65.47;;;14.07;;
5117;SDS011;2578;51.622;7.046;2024-01-27T04:39:40;67.53;;;14.97;;
5117;SDS011;2578;51.622;7.046;2024-01-27T04:42:06;67.97;;;15.60;;
5117;SDS011;2578;51.622;7.046;2024-01-27T04:44:32;66.47;;;13.97;;
5117;SDS011;2578;51.622;7.046;2024-01-27T04:46:58;65.83;;;13.83;;
5117;SDS011;2578;51.622;7.046;2024-01-27T04:49:25;67.03;;;14.57;;
5117;SDS011;2578;51.622;7.046;2024-01-27T04:51:51;66.40;;;14.10;;
5117;SDS011;2578;51.622;7.046;2024-01-27T04:54:17;65.23;;;14.10;;
5117;SDS011;2578;51.622;7.046;2024-01-27T04:56:42;65.83;;;14.30;;
5117;SDS011;2578;51.622;7.046;2024-01-27T04:59:08;72.80;;;17.17;;
5117;SDS011;2578;51.622;7.046;2024-01-27T05:01:34;67.77;;;14.87;;
5117;SDS011;2578;51.622;7.046;2024-01-27T05:04:00;67.23;;;14.37;;
5117;SDS011;2578;51.622;7.046;2024-01-27T05:06:26;66.37;;;14.63;;
5117;SDS011;2578;51.622;7.046;2024-01-27T05:08:52;75.10;;;16.57;;
5117;SDS011;2578;51.622;7.046;2024-01-27T05:11:25;66.40;;;14.70;;
5117;SDS011;2578;51.622;7.046;2024-01-27T05:13:54;66.27;;;14.80;;
5117;SDS011;2578;51.622;7.046;2024-01-27T05:16:20;66.00;;;14.73;;
5117;SDS011;2578;51.622;7.046;2024-01-27T05:18:46;66.80;;;15.40;;
5117;SDS011;2578;51.622;7.046;2024-01-27T05:21:13;66.47;;;14.73;;
5117;SDS011;2578;51.622;7.046;2024-01-27T05:23:39;68.90;;;16.60;;
5117;SDS011;2578;51.622;7.046;2024-01-27T05:26:05;67.27;;;15.20;;
5117;SDS011;2578;51.622;7.046;2024-01-27T05:28:31;67.37;;;15.57;;
5117;SDS011;2578;51.622;7.046;2024-01-27T05:30:58;67.40;;;16.60;;
5117;SDS011;2578;51.622;7.046;2024-01-27T05:33:24;67.30;;;15.70;;
5117;SDS011;2578;51.622;7.046;2024-01-27T05:35:50;69.00;;;16.53;;
5117;SDS011;2578;51.622;7.046;2024-01-27T05:38:15;68.00;;;16.60;;
5117;SDS011;2578;51.622;7.046;2024-01-27T05:40:41;66.83;;;15.50;;
5117;SDS011;2578;51.622;7.046;2024-01-27T05:43:08;65.80;;;14.63;;
5117;SDS011;2578;51.622;7.046;2024-01-27T05:45:34;67.50;;;15.97;;
5117;SDS011;2578;51.622;7.046;2024-01-27T05:48:00;66.07;;;14.40;;
5117;SDS011;2578;51.622;7.046;2024-01-27T05:50:26;66.30;;;14.73;;
5117;SDS011;2578;51.622;7.046;2024-01-27T05:52:52;66.07;;;14.50;;
5117;SDS011;2578;51.622;7.046;2024-01-27T05:55:18;66.50;;;14.70;;
5117;SDS011;2578;51.622;7.046;2024-01-27T05:57:43;68.40;;;15.07;;
5117;SDS011;2578;51.622;7.046;2024-01-27T06:00:10;67.13;;;15.03;;
5117;SDS011;2578;51.622;7.046;2024-01-27T06:02:36;66.37;;;14.53;;
5117;SDS011;2578;51.622;7.046;2024-01-27T06:05:02;65.77;;;13.87;;
5117;SDS011;2578;51.622;7.046;2024-01-27T06:07:28;66.60;;;13.97;;
5117;SDS011;2578;51.622;7.046;2024-01-27T06:09:54;66.17;;;13.80;;
5117;SDS011;2578;51.622;7.046;2024-01-27T06:12:20;66.30;;;13.57;;
5117;SDS011;2578;51.622;7.046;2024-01-27T06:14:45;66.30;;;13.60;;
5117;SDS011;2578;51.622;7.046;2024-01-27T06:17:12;66.40;;;13.73;;
5117;SDS011;2578;51.622;7.046;2024-01-27T06:19:40;71.10;;;15.13;;
5117;SDS011;2578;51.622;7.046;2024-01-27T06:22:06;66.23;;;14.40;;
5117;SDS011;2578;51.622;7.046;2024-01-27T06:24:32;66.40;;;14.03;;
5117;SDS011;2578;51.622;7.046;2024-01-27T06:26:58;65.93;;;13.80;;
5117;SDS011;2578;51.622;7.046;2024-01-27T06:29:24;66.10;;;13.57;;
5117;SDS011;2578;51.622;7.046;2024-01-27T06:31:51;75.53;;;15.47;;
5117;SDS011;2578;51.622;7.046;2024-01-27T06:34:18;66.40;;;14.20;;
5117;SDS011;2578;51.622;7.046;2024-01-27T06:36:44;66.37;;;14.20;;
5117;SDS011;2578;51.622;7.046;2024-01-27T06:39:10;66.57;;;13.50;;
5117;SDS011;2578;51.622;7.046;2024-01-27T06:41:36;66.00;;;13.30;;
5117;SDS011;2578;51.622;7.046;2024-01-27T06:44:02;66.30;;;14.70;;
5117;SDS011;2578;51.622;7.046;2024-01-27T06:46:29;65.80;;;13.10;;
5117;SDS011;2578;51.622;7.046;2024-01-27T06:48:55;65.40;;;13.27;;
5117;SDS011;2578;51.622;7.046;2024-01-27T06:51:21;66.10;;;14.03;;
5117;SDS011;2578;51.622;7.046;2024-01-27T06:53:48;65.90;;;13.63;;
5117;SDS011;2578;51.622;7.046;2024-01-27T06:56:16;65.53;;;13.07;;
5117;SDS011;2578;51.622;7.046;2024-01-27T06:58:43;65.70;;;13.50;;
5117;SDS011;2578;51.622;7.046;2024-01-27T07:01:09;67.27;;;14.40;;
5117;SDS011;2578;51.622;7.046;2024-01-27T07:03:35;67.40;;;13.00;;
5117;SDS011;2578;51.622;7.046;2024-01-27T07:06:01;66.10;;;13.97;;
5117;SDS011;2578;51.622;7.046;2024-01-27T07:08:27;74.17;;;16.17;;
5117;SDS011;2578;51.622;7.046;2024-01-27T07:10:54;68.03;;;14.50;;
5117;SDS011;2578;51.622;7.046;2024-01-27T07:13:20;64.97;;;13.70;;
5117;SDS011;2578;51.622;7.046;2024-01-27T07:15:46;70.20;;;16.43;;
5117;SDS011;2578;51.622;7.046;2024-01-27T07:18:12;66.63;;;13.97;;
5117;SDS011;2578;51.622;7.046;2024-01-27T07:20:40;65.10;;;13.27;;
5117;SDS011;2578;51.622;7.046;2024-01-27T07:23:06;64.90;;;13.27;;
5117;SDS011;2578;51.622;7.046;2024-01-27T07:25:31;72.83;;;13.90;;
5117;SDS011;2578;51.622;7.046;2024-01-27T07:27:57;64.70;;;12.60;;
5117;SDS011;2578;51.622;7.046;2024-01-27T07:30:23;64.93;;;13.20;;
5117;SDS011;2578;51.622;7.046;2024-01-27T07:32:49;69.83;;;13.87;;
5117;SDS011;2578;51.622;7.046;2024-01-27T07:35:15;64.90;;;14.07;;
5117;SDS011;2578;51.622;7.046;2024-01-27T07:37:42;67.50;;;14.13;;
5117;SDS011;2578;51.622;7.046;2024-01-27T07:40:09;66.90;;;14.67;;
5117;SDS011;2578;51.622;7.046;2024-01-27T07:42:35;66.10;;;14.23;;
5117;SDS011;2578;51.622;7.046;2024-01-27T07:45:01;65.47;;;13.00;;
5117;SDS011;2578;51.622;7.046;2024-01-27T07:47:27;68.30;;;16.00;;
5117;SDS011;2578;51.622;7.046;2024-01-27T07:49:53;79.53;;;14.50;;
5117;SDS011;2578;51.622;7.046;2024-01-27T07:52:19;64.10;;;12.50;;
5117;SDS011;2578;51.622;7.046;2024-01-27T07:54:45;65.77;;;15.13;;
5117;SDS011;2578;51.622;7.046;2024-01-27T07:57:11;65.47;;;14.67;;
5117;SDS011;2578;51.622;7.046;2024-01-27T07:59:37;64.73;;;14.00;;
5117;SDS011;2578;51.622;7.046;2024-01-27T08:02:03;65.70;;;16.00;;
5117;SDS011;2578;51.622;7.046;2024-01-27T08:04:29;67.00;;;16.90;;
5117;SDS011;2578;51.622;7.046;2024-01-27T08:06:55;69.27;;;18.83;;
5117;SDS011;2578;51.622;7.046;2024-01-27T08:09:21;69.80;;;19.73;;
5117;SDS011;2578;51.622;7.046;2024-01-27T08:11:48;68.97;;;18.90;;
5117;SDS011;2578;51.622;7.046;2024-01-27T08:14:17;70.47;;;21.70;;
5117;SDS011;2578;51.622;7.046;2024-01-27T08:16:43;71.63;;;20.17;;
5117;SDS011;2578;51.622;7.046;2024-01-27T08:19:09;69.30;;;19.63;;
5117;SDS011;2578;51.622;7.046;2024-01-27T08:21:35;69.07;;;19.90;;
5117;SDS011;2578;51.622;7.046;2024-01-27T08:24:00;68.63;;;18.80;;
5117;SDS011;2578;51.622;7.046;2024-01-27T08:26:26;92.20;;;22.70;;
5117;SDS011;2578;51.622;7.046;2024-01-27T08:28:52;70.43;;;21.10;;
5117;SDS011;2578;51.622;7.046;2024-01-27T08:31:21;71.00;;;20.60;;
5117;SDS011;2578;51.622;7.046;2024-01-27T08:33:47;70.77;;;20.97;;
5117;SDS011;2578;51.622;7.046;2024-01-27T08:36:13;76.47;;;21.00;;
5117;SDS011;2578;51.622;7.046;2024-01-27T08:38:40;70.73;;;20.40;;
5117;SDS011;2578;51.622;7.046;2024-01-27T08:41:06;72.60;;;21.00;;
5117;SDS011;2578;51.622;7.046;2024-01-27T08:43:32;75.93;;;24.83;;
5117;SDS011;2578;51.622;7.046;2024-01-27T08:45:58;75.07;;;23.33;;
5117;SDS011;2578;51.622;7.046;2024-01-27T08:48:25;83.20;;;30.07;;
5117;SDS011;2578;51.622;7.046;2024-01-27T08:50:51;78.10;;;27.83;;
5117;SDS011;2578;51.622;7.046;2024-01-27T08:53:17;77.23;;;25.93;;
5117;SDS011;2578;51.622;7.046;2024-01-27T08:55:43;81.00;;;26.47;;
5117;SDS011;2578;51.622;7.046;2024-01-27T08:58:09;80.47;;;26.93;;
5117;SDS011;2578;51.622;7.046;2024-01-27T09:00:35;83.50;;;26.40;;
5117;SDS011;2578;51.622;7.046;2024-01-27T09:03:01;84.03;;;27.83;;
5117;SDS011;2578;51.622;7.046;2024-01-27T09:05:28;81.30;;;27.07;;
5117;SDS011;2578;51.622;7.046;2024-01-27T09:07:54;83.50;;;28.50;;
5117;SDS011;2578;51.622;7.046;2024-01-27T09:10:20;84.37;;;30.90;;
5117;SDS011;2578;51.622;7.046;2024-01-27T09:12:46;92.30;;;29.30;;
5117;SDS011;2578;51.622;7.046;2024-01-27T09:15:11;89.20;;;31.67;;
5117;SDS011;2578;51.622;7.046;2024-01-27T09:17:37;92.40;;;33.17;;
5117;SDS011;2578;51.622;7.046;2024-01-27T09:20:04;106.63;;;34.10;;
5117;SDS011;2578;51.622;7.046;2024-01-27T09:22:31;94.20;;;35.77;;
5117;SDS011;2578;51.622;7.046;2024-01-27T09:24:56;98.63;;;40.10;;
5117;SDS011;2578;51.622;7.046;2024-01-27T09:27:22;107.60;;;47.00;;
5117;SDS011;2578;51.622;7.046;2024-01-27T09:29:48;111.60;;;52.57;;
5117;SDS011;2578;51.622;7.046;2024-01-27T09:32:14;114.40;;;53.37;;
5117;SDS011;2578;51.622;7.046;2024-01-27T09:34:40;120.70;;;62.50;;
5117;SDS011;2578;51.622;7.046;2024-01-27T09:37:06;127.67;;;70.67;;
5117;SDS011;2578;51.622;7.046;2024-01-27T09:39:32;126.77;;;68.93;;
5117;SDS011;2578;51.622;7.046;2024-01-27T09:41:59;130.90;;;86.80;;
5117;SDS011;2578;51.622;7.046;2024-01-27T09:44:31;125.10;;;66.97;;
5117;SDS011;2578;51.622;7.046;2024-01-27T09:46:57;124.47;;;65.90;;
5117;SDS011;2578;51.622;7.046;2024-01-27T09:49:23;147.07;;;97.17;;
5117;SDS011;2578;51.622;7.046;2024-01-27T09:51:51;140.10;;;94.07;;
5117;SDS011;2578;51.622;7.046;2024-01-27T09:54:17;134.70;;;79.50;;
5117;SDS011;2578;51.622;7.046;2024-01-27T09:56:45;125.57;;;56.30;;
5117;SDS011;2578;51.622;7.046;2024-01-27T09:59:11;133.17;;;68.67;;
5117;SDS011;2578;51.622;7.046;2024-01-27T10:01:39;139.77;;;82.33;;
5117;SDS011;2578;51.622;7.046;2024-01-27T10:04:05;140.33;;;76.80;;
5117;SDS011;2578;51.622;7.046;2024-01-27T10:06:34;142.60;;;78.30;;
5117;SDS011;2578;51.622;7.046;2024-01-27T10:09:00;137.17;;;77.50;;
5117;SDS011;2578;51.622;7.046;2024-01-27T10:11:26;144.87;;;83.30;;
5117;SDS011;2578;51.622;7.046;2024-01-27T10:13:53;146.03;;;84.33;;
5117;SDS011;2578;51.622;7.046;2024-01-27T10:16:21;149.70;;;97.10;;
5117;SDS011;2578;51.622;7.046;2024-01-27T10:18:46;157.07;;;110.60;;
5117;SDS011;2578;51.622;7.046;2024-01-27T10:21:13;154.27;;;111.87;;
5117;SDS011;2578;51.622;7.046;2024-01-27T10:23:43;161.73;;;129.80;;
5117;SDS011;2578;51.622;7.046;2024-01-27T10:26:09;166.10;;;146.87;;
5117;SDS011;2578;51.622;7.046;2024-01-27T10:28:36;164.33;;;143.30;;
5117;SDS011;2578;51.622;7.046;2024-01-27T10:31:11;175.50;;;156.50;;
5117;SDS011;2578;51.622;7.046;2024-01-27T10:33:37;190.83;;;171.83;;
5117;SDS011;2578;51.622;7.046;2024-01-27T10:36:04;147.37;;;126.43;;
5117;SDS011;2578;51.622;7.046;2024-01-27T10:38:37;125.00;;;84.27;;
5117;SDS011;2578;51.622;7.046;2024-01-27T10:41:08;133.30;;;96.80;;
5117;SDS011;2578;51.622;7.046;2024-01-27T10:43:37;176.60;;;158.70;;
5117;SDS011;2578;51.622;7.046;2024-01-27T10:46:07;129.07;;;92.40;;
5117;SDS011;2578;51.622;7.046;2024-01-27T10:48:36;125.87;;;79.57;;
5117;SDS011;2578;51.622;7.046;2024-01-27T10:51:07;119.60;;;66.33;;
5117;SDS011;2578;51.622;7.046;2024-01-27T10:53:35;138.93;;;87.70;;
5117;SDS011;2578;51.622;7.046;2024-01-27T10:56:03;130.77;;;82.83;;
5117;SDS011;2578;51.622;7.046;2024-01-27T10:58:33;121.87;;;71.47;;
5117;SDS011;2578;51.622;7.046;2024-01-27T11:01:05;122.07;;;69.60;;
5117;SDS011;2578;51.622;7.046;2024-01-27T11:03:34;121.63;;;70.10;;
5117;SDS011;2578;51.622;7.046;2024-01-27T11:06:03;120.70;;;65.07;;
5117;SDS011;2578;51.622;7.046;2024-01-27T11:08:30;118.80;;;62.33;;
5117;SDS011;2578;51.622;7.046;2024-01-27T11:10:57;120.30;;;62.90;;
5117;SDS011;2578;51.622;7.046;2024-01-27T11:13:24;118.00;;;62.87;;
5117;SDS011;2578;51.622;7.046;2024-01-27T11:15:52;116.47;;;58.23;;
5117;SDS011;2578;51.622;7.046;2024-01-27T11:18:19;110.40;;;50.27;;
5117;SDS011;2578;51.622;7.046;2024-01-27T11:20:45;111.87;;;52.33;;
5117;SDS011;2578;51.622;7.046;2024-01-27T11:23:14;109.60;;;47.90;;
5117;SDS011;2578;51.622;7.046;2024-01-27T11:25:40;107.40;;;44.80;;
5117;SDS011;2578;51.622;7.046;2024-01-27T11:28:12;106.07;;;42.60;;
5117;SDS011;2578;51.622;7.046;2024-01-27T11:30:39;106.17;;;44.70;;
5117;SDS011;2578;51.622;7.046;2024-01-27T11:33:09;104.90;;;41.83;;
5117;SDS011;2578;51.622;7.046;2024-01-27T11:35:35;105.77;;;44.47;;
5117;SDS011;2578;51.622;7.046;2024-01-27T11:38:01;105.87;;;45.20;;
5117;SDS011;2578;51.622;7.046;2024-01-27T11:40:27;107.20;;;45.13;;
5117;SDS011;2578;51.622;7.046;2024-01-27T11:42:55;105.77;;;42.03;;
5117;SDS011;2578;51.622;7.046;2024-01-27T11:45:21;100.27;;;38.57;;
5117;SDS011;2578;51.622;7.046;2024-01-27T11:47:47;101.40;;;40.60;;
5117;SDS011;2578;51.622;7.046;2024-01-27T11:50:13;98.80;;;36.90;;
5117;SDS011;2578;51.622;7.046;2024-01-27T11:52:39;98.33;;;36.07;;
5117;SDS011;2578;51.622;7.046;2024-01-27T11:55:05;102.63;;;38.50;;
5117;SDS011;2578;51.622;7.046;2024-01-27T11:57:32;102.50;;;38.23;;
5117;SDS011;2578;51.622;7.046;2024-01-27T11:59:58;100.53;;;39.87;;
5117;SDS011;2578;51.622;7.046;2024-01-27T12:02:24;101.07;;;39.70;;
5117;SDS011;2578;51.622;7.046;2024-01-27T12:04:50;104.07;;;42.27;;
5117;SDS011;2578;51.622;7.046;2024-01-27T12:07:17;113.23;;;41.73;;
5117;SDS011;2578;51.622;7.046;2024-01-27T12:09:44;107.00;;;45.47;;
5117;SDS011;2578;51.622;7.046;2024-01-27T12:12:10;106.10;;;44.13;;
5117;SDS011;2578;51.622;7.046;2024-01-27T12:14:41;103.67;;;42.40;;
5117;SDS011;2578;51.622;7.046;2024-01-27T12:17:10;100.80;;;38.80;;
5117;SDS011;2578;51.622;7.046;2024-01-27T12:19:36;99.97;;;38.63;;
5117;SDS011;2578;51.622;7.046;2024-01-27T12:22:03;109.27;;;44.70;;
5117;SDS011;2578;51.622;7.046;2024-01-27T12:24:29;100.70;;;37.33;;
5117;SDS011;2578;51.622;7.046;2024-01-27T12:26:57;105.37;;;36.23;;
5117;SDS011;2578;51.622;7.046;2024-01-27T12:29:23;98.57;;;37.67;;
5117;SDS011;2578;51.622;7.046;2024-01-27T12:31:49;97.57;;;37.70;;
5117;SDS011;2578;51.622;7.046;2024-01-27T12:34:15;101.67;;;41.50;;
5117;SDS011;2578;51.622;7.046;2024-01-27T12:36:41;104.37;;;41.80;;
5117;SDS011;2578;51.622;7.046;2024-01-27T12:39:08;101.07;;;40.50;;
5117;SDS011;2578;51.622;7.046;2024-01-27T12:41:34;97.67;;;34.60;;
5117;SDS011;2578;51.622;7.046;2024-01-27T12:44:00;99.47;;;38.30;;
5117;SDS011;2578;51.622;7.046;2024-01-27T12:46:27;96.13;;;34.37;;
5117;SDS011;2578;51.622;7.046;2024-01-27T12:48:53;95.47;;;33.50;;
5117;SDS011;2578;51.622;7.046;2024-01-27T12:51:19;98.90;;;37.60;;
5117;SDS011;2578;51.622;7.046;2024-01-27T12:53:45;97.50;;;34.33;;
5117;SDS011;2578;51.622;7.046;2024-01-27T12:56:12;137.77;;;49.07;;
5117;SDS011;2578;51.622;7.046;2024-01-27T12:58:38;108.40;;;42.10;;
5117;SDS011;2578;51.622;7.046;2024-01-27T13:01:05;108.83;;;38.37;;
5117;SDS011;2578;51.622;7.046;2024-01-27T13:03:31;100.70;;;35.80;;
5117;SDS011;2578;51.622;7.046;2024-01-27T13:05:57;99.40;;;35.30;;
5117;SDS011;2578;51.622;7.046;2024-01-27T13:08:24;97.80;;;34.80;;
5117;SDS011;2578;51.622;7.046;2024-01-27T13:10:50;97.47;;;35.30;;
5117;SDS011;2578;51.622;7.046;2024-01-27T13:13:16;99.50;;;35.27;;
5117;SDS011;2578;51.622;7.046;2024-01-27T13:15:42;104.20;;;40.40;;
5117;SDS011;2578;51.622;7.046;2024-01-27T13:18:08;102.07;;;41.60;;
5117;SDS011;2578;51.622;7.046;2024-01-27T13:20:35;104.57;;;38.90;;
5117;SDS011;2578;51.622;7.046;2024-01-27T13:23:01;99.50;;;37.30;;
5117;SDS011;2578;51.622;7.046;2024-01-27T13:25:27;96.73;;;36.60;;
5117;SDS011;2578;51.622;7.046;2024-01-27T13:27:53;94.40;;;33.40;;
5117;SDS011;2578;51.622;7.046;2024-01-27T13:30:19;93.13;;;31.67;;
5117;SDS011;2578;51.622;7.046;2024-01-27T13:32:45;97.60;;;33.97;;
5117;SDS011;2578;51.622;7.046;2024-01-27T13:35:11;96.10;;;32.47;;
5117;SDS011;2578;51.622;7.046;2024-01-27T13:37:37;94.73;;;32.60;;
5117;SDS011;2578;51.622;7.046;2024-01-27T13:40:04;96.97;;;35.43;;
5117;SDS011;2578;51.622;7.046;2024-01-27T13:42:32;97.30;;;34.00;;
5117;SDS011;2578;51.622;7.046;2024-01-27T13:44:58;96.60;;;33.27;;
5117;SDS011;2578;51.622;7.046;2024-01-27T13:47:24;97.90;;;33.17;;
5117;SDS011;2578;51.622;7.046;2024-01-27T13:49:51;99.67;;;34.43;;
5117;SDS011;2578;51.622;7.046;2024-01-27T13:52:17;97.63;;;33.20;;
5117;SDS011;2578;51.622;7.046;2024-01-27T13:54:43;100.17;;;35.43;;
5117;SDS011;2578;51.622;7.046;2024-01-27T13:57:09;101.43;;;36.30;;
5117;SDS011;2578;51.622;7.046;2024-01-27T13:59:38;101.73;;;34.23;;
5117;SDS011;2578;51.622;7.046;2024-01-27T14:02:03;96.20;;;31.43;;
5117;SDS011;2578;51.622;7.046;2024-01-27T14:04:29;97.80;;;31.77;;
5117;SDS011;2578;51.622;7.046;2024-01-27T14:06:55;95.57;;;30.40;;
5117;SDS011;2578;51.622;7.046;2024-01-27T14:09:24;97.27;;;31.73;;
5117;SDS011;2578;51.622;7.046;2024-01-27T14:11:52;97.17;;;32.00;;
5117;SDS011;2578;51.622;7.046;2024-01-27T14:14:18;96.67;;;31.63;;
5117;SDS011;2578;51.622;7.046;2024-01-27T14:16:43;96.07;;;29.97;;
5117;SDS011;2578;51.622;7.046;2024-01-27T14:19:10;95.47;;;29.90;;
5117;SDS011;2578;51.622;7.046;2024-01-27T14:21:36;94.40;;;29.27;;
5117;SDS011;2578;51.622;7.046;2024-01-27T14:24:03;98.17;;;30.63;;
5117;SDS011;2578;51.622;7.046;2024-01-27T14:26:31;93.90;;;29.77;;
5117;SDS011;2578;51.622;7.046;2024-01-27T14:28:57;94.10;;;29.20;;
5117;SDS011;2578;51.622;7.046;2024-01-27T14:31:23;93.43;;;28.90;;
5117;SDS011;2578;51.622;7.046;2024-01-27T14:33:49;93.60;;;27.70;;
5117;SDS011;2578;51.622;7.046;2024-01-27T14:36:16;103.83;;;28.67;;
5117;SDS011;2578;51.622;7.046;2024-01-27T14:38:41;91.60;;;27.80;;